createdAt,value
2018-03-26T00:01:30.710Z,101065.61
2018-03-26T00:04:36.452Z,101072.34
2018-03-26T00:07:40.372Z,101069.50
2018-03-26T00:10:46.793Z,101075.53
2018-03-26T00:13:53.184Z,101069.09
2018-03-26T00:16:56.752Z,101073.84
2018-03-26T00:20:04.771Z,101079.47
2018-03-26T00:23:08.530Z,101066.29
2018-03-26T00:26:14.252Z,101067.06
2018-03-26T00:29:17.719Z,101063.89
2018-03-26T00:32:23.380Z,101067.56
2018-03-26T00:35:27.257Z,101070.06
2018-03-26T00:38:30.809Z,101074.84
2018-03-26T00:41:35.508Z,101079.60
2018-03-26T00:44:40.667Z,101070.80
2018-03-26T00:47:44.578Z,101074.83
2018-03-26T00:50:51.427Z,101074.00
2018-03-26T00:53:54.824Z,101083.11
2018-03-26T00:56:59.901Z,101071.63
2018-03-26T01:00:05.944Z,101077.14
2018-03-26T01:03:11.502Z,101072.41
2018-03-26T01:06:14.887Z,101080.30
2018-03-26T01:09:20.380Z,101077.19
2018-03-26T01:12:24.240Z,101083.73
2018-03-26T01:15:28.959Z,101091.34
2018-03-26T01:18:33.300Z,101099.29
2018-03-26T01:21:36.784Z,101093.44
2018-03-26T01:24:40.224Z,101095.89
2018-03-26T01:27:43.808Z,101101.05
2018-03-26T01:30:47.260Z,101107.17
2018-03-26T01:33:51.363Z,101103.31
2018-03-26T01:36:58.001Z,101107.72
2018-03-26T01:40:02.712Z,101111.25
2018-03-26T01:43:09.285Z,101113.94
2018-03-26T01:46:13.899Z,101111.58
2018-03-26T01:49:17.458Z,101111.48
2018-03-26T01:52:22.501Z,101112.92
2018-03-26T01:55:27.651Z,101107.45
2018-03-26T01:58:32.752Z,101106.31
2018-03-26T02:01:38.078Z,101110.73
2018-03-26T02:04:41.704Z,101111.31
2018-03-26T02:07:45.513Z,101109.55
2018-03-26T02:10:50.564Z,101117.36
2018-03-26T02:13:54.662Z,101120.14
2018-03-26T02:17:02.197Z,101120.47
2018-03-26T02:20:06.675Z,101123.91
2018-03-26T02:23:12.982Z,101115.37
2018-03-26T02:26:18.532Z,101120.53
2018-03-26T02:29:25.728Z,101124.13
2018-03-26T02:32:30.154Z,101134.64
2018-03-26T02:35:35.687Z,101140.91
2018-03-26T02:38:40.452Z,101145.91
2018-03-26T02:41:46.481Z,101146.81
2018-03-26T02:44:53.743Z,101146.23
2018-03-26T02:47:57.876Z,101146.06
2018-03-26T02:51:03.298Z,101142.22
2018-03-26T02:54:11.061Z,101148.36
2018-03-26T02:57:14.532Z,101152.87
2018-03-26T03:00:22.228Z,101149.50
2018-03-26T03:03:28.744Z,101147.56
2018-03-26T04:55:02.428Z,101191.03
2018-03-26T04:58:05.755Z,101199.34
2018-03-26T05:01:09.108Z,101204.74
2018-03-26T05:04:12.673Z,101208.69
2018-03-26T05:07:16.128Z,101212.88
2018-03-26T05:10:19.478Z,101210.63
2018-03-26T05:13:22.904Z,101218.20
2018-03-26T05:16:26.326Z,101220.20
2018-03-26T05:19:29.725Z,101226.33
2018-03-26T05:22:33.072Z,101228.98
2018-03-26T05:25:36.417Z,101232.48
2018-03-26T05:28:39.753Z,101240.05
2018-03-26T05:31:43.741Z,101236.64
2018-03-26T05:34:47.724Z,101236.87
2018-03-26T05:37:51.079Z,101239.23
2018-03-26T05:40:54.432Z,101236.02
2018-03-26T05:43:57.778Z,101243.91
2018-03-26T05:47:01.791Z,101240.66
2018-03-26T05:50:05.207Z,101248.98
2018-03-26T05:53:09.292Z,101249.50
2018-03-26T05:56:12.645Z,101249.89
2018-03-26T05:59:16.033Z,101256.17
2018-03-26T06:02:19.433Z,101260.56
2018-03-26T06:05:22.803Z,101258.72
2018-03-26T06:08:26.145Z,101259.05
2018-03-26T06:11:29.569Z,101265.20
2018-03-26T06:14:32.943Z,101268.21
2018-03-26T06:17:36.389Z,101271.84
2018-03-26T06:20:39.786Z,101276.88
2018-03-26T06:23:43.213Z,101267.06
2018-03-26T06:26:47.906Z,101277.87
2018-03-26T06:29:51.235Z,101277.80
2018-03-26T06:32:54.600Z,101280.74
2018-03-26T06:35:58.117Z,101272.80
2018-03-26T06:39:01.461Z,101280.11
2018-03-26T06:42:05.548Z,101279.58
2018-03-26T06:45:08.945Z,101282.20
2018-03-26T06:48:12.295Z,101279.00
2018-03-26T06:51:15.647Z,101284.63
2018-03-26T06:54:18.964Z,101282.62
2018-03-26T06:57:22.306Z,101286.91
2018-03-26T07:00:25.651Z,101280.38
2018-03-26T07:03:28.983Z,101282.62
2018-03-26T07:06:32.295Z,101280.38
2018-03-26T07:09:35.638Z,101283.26
2018-03-26T07:12:39.016Z,101280.90
2018-03-26T07:15:42.339Z,101286.60
2018-03-26T07:18:45.699Z,101292.41
2018-03-26T07:21:49.012Z,101296.02
2018-03-26T07:24:52.348Z,101304.99
2018-03-26T07:27:55.688Z,101316.09
2018-03-26T07:30:59.765Z,101310.52
2018-03-26T07:34:03.096Z,101308.94
2018-03-26T07:37:06.475Z,101318.83
2018-03-26T07:40:09.798Z,101308.42
2018-03-26T07:43:13.123Z,101327.51
2018-03-26T07:46:16.451Z,101327.73
2018-03-26T07:49:19.785Z,101317.80
2018-03-26T07:52:23.128Z,101326.52
2018-03-26T07:55:26.453Z,101318.61
2018-03-26T07:58:29.847Z,101320.17
2018-03-26T08:01:33.184Z,101317.39
2018-03-26T08:04:36.518Z,101317.79
2018-03-26T08:07:39.828Z,101323.25
2018-03-26T08:10:43.190Z,101325.44
2018-03-26T08:13:46.509Z,101320.31
2018-03-26T08:16:49.841Z,101326.14
2018-03-26T08:19:53.152Z,101326.73
2018-03-26T08:22:56.478Z,101332.20
2018-03-26T08:25:59.799Z,101332.87
2018-03-26T08:29:03.134Z,101325.61
2018-03-26T08:32:06.463Z,101330.32
2018-03-26T08:35:09.781Z,101335.75
2018-03-26T08:38:13.112Z,101337.84
2018-03-26T08:41:16.420Z,101348.37
2018-03-26T08:44:19.749Z,101362.37
2018-03-26T08:47:23.059Z,101354.86
2018-03-26T08:50:26.386Z,101360.39
2018-03-26T08:53:29.717Z,101358.48
2018-03-26T08:56:33.042Z,101363.80
2018-03-26T08:59:36.351Z,101361.16
2018-03-26T09:02:39.676Z,101364.96
2018-03-26T09:05:43.029Z,101358.93
2018-03-26T09:08:46.316Z,101362.94
2018-03-26T09:11:49.627Z,101368.67
2018-03-26T09:14:53.048Z,101369.91
2018-03-26T09:17:56.582Z,101364.26
2018-03-26T09:20:59.907Z,101377.07
2018-03-26T09:24:04.000Z,101373.95
2018-03-26T09:27:07.299Z,101376.06
2018-03-26T09:30:11.397Z,101376.27
2018-03-26T09:33:14.710Z,101382.52
2018-03-26T09:36:18.041Z,101366.55
2018-03-26T09:39:21.358Z,101373.91
2018-03-26T09:42:24.696Z,101372.98
2018-03-26T09:45:28.024Z,101379.05
2018-03-26T09:48:31.342Z,101386.91
2018-03-26T09:51:34.642Z,101378.92
2018-03-26T09:54:37.972Z,101381.70
2018-03-26T09:57:41.282Z,101381.09
2018-03-26T10:00:49.442Z,101376.34
2018-03-26T10:03:52.711Z,101380.35
2018-03-26T10:06:56.032Z,101383.85
2018-03-26T10:09:59.391Z,101387.80
2018-03-26T10:13:03.486Z,101387.33
2018-03-26T10:16:06.829Z,101394.49
2018-03-26T10:19:10.183Z,101393.83
2018-03-26T10:22:13.491Z,101385.27
2018-03-26T10:25:16.849Z,101379.41
2018-03-26T10:28:20.994Z,101378.94
2018-03-26T10:31:24.317Z,101378.09
2018-03-26T10:34:28.446Z,101384.16
2018-03-26T10:37:31.775Z,101386.55
2018-03-26T10:40:35.074Z,101382.44
2018-03-26T10:43:38.394Z,101389.66
2018-03-26T10:46:41.730Z,101381.63
2018-03-26T10:49:45.374Z,101397.77
2018-03-26T10:52:48.721Z,101381.76
2018-03-26T10:55:52.074Z,101394.37
2018-03-26T10:58:55.628Z,101399.34
2018-03-26T11:01:58.944Z,101394.20
2018-03-26T11:05:02.270Z,101385.42
2018-03-26T11:08:05.584Z,101389.66
2018-03-26T11:11:08.913Z,101390.64
2018-03-26T11:14:12.214Z,101393.66
2018-03-26T11:17:15.538Z,101387.67
2018-03-26T11:20:18.847Z,101394.89
2018-03-26T11:23:22.173Z,101395.05
2018-03-26T11:26:25.507Z,101398.93
2018-03-26T11:29:28.807Z,101392.09
2018-03-26T11:32:32.131Z,101391.62
2018-03-26T11:35:35.436Z,101400.84
2018-03-26T11:38:38.763Z,101402.22
2018-03-26T11:41:42.862Z,101389.73
2018-03-26T11:44:46.175Z,101391.16
2018-03-26T11:47:50.252Z,101384.85
2018-03-26T11:50:53.579Z,101390.23
2018-03-26T11:53:57.658Z,101388.46
2018-03-26T11:57:00.977Z,101386.67
2018-03-26T12:00:04.283Z,101386.66
2018-03-26T12:03:07.620Z,101388.08
2018-03-26T12:06:10.922Z,101384.22
2018-03-26T12:09:14.240Z,101381.70
2018-03-26T12:12:17.542Z,101379.14
2018-03-26T12:15:20.872Z,101379.48
2018-03-26T12:18:24.987Z,101380.06
2018-03-26T12:21:29.065Z,101384.93
2018-03-26T12:24:49.858Z,101387.37
2018-03-26T12:28:10.727Z,101391.66
2018-03-26T12:31:14.820Z,101393.61
2018-03-26T12:34:35.590Z,101403.64
2018-03-26T12:37:39.747Z,101411.05
2018-03-26T12:40:57.623Z,101413.05
2018-03-26T12:44:00.959Z,101412.44
2018-03-26T12:47:04.286Z,101414.56
2018-03-26T12:50:08.387Z,101415.38
2018-03-26T12:53:11.715Z,101420.03
2018-03-26T12:56:15.055Z,101423.41
2018-03-26T12:59:18.367Z,101427.14
2018-03-26T13:02:36.549Z,101425.23
2018-03-26T13:05:39.917Z,101429.69
2018-03-26T13:08:43.255Z,101424.52
2018-03-26T13:11:46.598Z,101429.83
2018-03-26T13:14:49.937Z,101420.39
2018-03-26T13:17:53.259Z,101414.23
2018-03-26T13:20:56.587Z,101417.09
2018-03-26T13:23:59.932Z,101420.35
2018-03-26T13:27:03.600Z,101420.98
2018-03-26T13:30:06.948Z,101417.78
2018-03-26T13:33:10.251Z,101417.79
2018-03-26T13:36:13.583Z,101420.34
2018-03-26T13:39:16.891Z,101417.03
2018-03-26T13:42:20.228Z,101411.00
2018-03-26T13:45:23.539Z,101422.12
2018-03-26T13:48:26.857Z,101423.16
2018-03-26T13:51:30.154Z,101420.09
2018-03-26T13:54:33.483Z,101426.52
2018-03-26T13:57:36.787Z,101425.45
2018-03-26T14:00:40.868Z,101427.97
2018-03-26T14:03:44.207Z,101428.11
2018-03-26T14:06:48.263Z,101429.16
2018-03-26T14:10:09.353Z,101433.72
2018-03-26T14:13:30.287Z,101434.66
2018-03-26T14:16:51.231Z,101432.92
2018-03-26T14:19:54.538Z,101434.63
2018-03-26T14:22:58.630Z,101438.06
2018-03-26T14:26:01.955Z,101445.45
2018-03-26T14:29:06.058Z,101444.14
2018-03-26T14:32:09.379Z,101446.45
2018-03-26T14:35:48.174Z,101452.98
2018-03-26T14:38:51.491Z,101448.38
2018-03-26T14:41:55.687Z,101455.46
2018-03-26T14:44:58.991Z,101446.72
2018-03-26T14:48:02.328Z,101443.43
2018-03-26T14:51:05.658Z,101445.12
2018-03-26T14:54:08.955Z,101441.06
2018-03-26T14:57:12.275Z,101443.42
2018-03-26T15:00:16.844Z,101440.05
2018-03-26T15:03:20.155Z,101438.84
2018-03-26T15:06:23.471Z,101441.47
2018-03-26T15:09:26.786Z,101448.29
2018-03-26T15:12:30.094Z,101450.16
2018-03-26T15:15:33.409Z,101449.05
2018-03-26T15:18:37.470Z,101450.09
2018-03-26T15:21:40.787Z,101452.41
2018-03-26T15:24:44.103Z,101445.34
2018-03-26T15:27:48.183Z,101449.82
2018-03-26T15:30:51.487Z,101452.06
2018-03-26T15:33:54.823Z,101451.78
2018-03-26T15:36:58.882Z,101453.78
2018-03-26T15:40:02.197Z,101455.52
2018-03-26T15:43:05.489Z,101453.72
2018-03-26T15:46:08.794Z,101461.98
2018-03-26T15:49:12.094Z,101466.75
2018-03-26T15:52:15.402Z,101461.09
2018-03-26T15:55:19.474Z,101456.41
2018-03-26T15:58:22.792Z,101456.64
2018-03-26T16:01:26.086Z,101468.70
2018-03-26T16:04:29.403Z,101471.14
2018-03-26T16:07:32.699Z,101475.52
2018-03-26T16:10:36.007Z,101478.97
2018-03-26T16:13:40.077Z,101476.58
2018-03-26T16:16:43.387Z,101477.67
2018-03-26T16:19:46.699Z,101478.44
2018-03-26T16:22:49.995Z,101485.01
2018-03-26T16:25:53.336Z,101477.03
2018-03-26T16:28:56.642Z,101482.38
2018-03-26T16:31:59.953Z,101481.88
2018-03-26T16:35:03.420Z,101485.40
2018-03-26T16:38:06.737Z,101482.86
2018-03-26T16:41:10.039Z,101482.64
2018-03-26T16:44:13.359Z,101481.77
2018-03-26T16:47:16.694Z,101486.26
2018-03-26T16:50:19.994Z,101492.27
2018-03-26T16:53:23.307Z,101496.77
2018-03-26T16:56:26.614Z,101502.73
2018-03-26T16:59:29.929Z,101498.48
2018-03-26T17:02:33.230Z,101495.77
2018-03-26T17:05:36.550Z,101492.32
2018-03-26T17:08:39.879Z,101489.56
2018-03-26T17:11:43.186Z,101493.73
2018-03-26T17:14:46.503Z,101497.31
2018-03-26T17:17:49.818Z,101495.05
2018-03-26T17:20:53.143Z,101503.36
2018-03-26T17:23:57.209Z,101506.98
2018-03-26T17:27:00.527Z,101513.12
2018-03-26T17:30:03.819Z,101513.77
2018-03-26T17:33:07.152Z,101514.63
2018-03-26T17:36:11.255Z,101511.11
2018-03-26T17:39:15.315Z,101509.80
2018-03-26T17:42:18.627Z,101509.98
2018-03-26T17:45:22.042Z,101514.31
2018-03-26T17:48:26.035Z,101513.73
2018-03-26T17:51:29.359Z,101516.61
2018-03-26T17:54:32.690Z,101516.39
2018-03-26T17:57:35.994Z,101514.37
2018-03-26T18:00:39.308Z,101520.71
2018-03-26T18:03:42.642Z,101520.28
2018-03-26T18:06:45.955Z,101515.27
2018-03-26T18:09:50.048Z,101523.86
2018-03-26T18:12:53.363Z,101525.32
2018-03-26T18:15:56.731Z,101529.97
2018-03-26T18:19:00.039Z,101532.65
2018-03-26T18:22:03.348Z,101529.38
2018-03-26T18:25:06.686Z,101530.72
2018-03-26T18:28:10.006Z,101537.65
2018-03-26T18:31:13.339Z,101536.62
2018-03-26T18:34:16.644Z,101531.06
2018-03-26T18:37:19.967Z,101533.62
2018-03-26T18:40:23.338Z,101536.39
2018-03-26T18:43:26.662Z,101532.80
2018-03-26T18:46:30.005Z,101535.22
2018-03-26T18:49:33.335Z,101534.64
2018-03-26T18:52:37.435Z,101542.05
2018-03-26T18:55:40.751Z,101536.75
2018-03-26T18:58:44.079Z,101532.22
2018-03-26T19:01:47.388Z,101537.11
2018-03-26T19:04:50.731Z,101537.10
2018-03-26T19:07:54.051Z,101538.86
2018-03-26T19:10:57.379Z,101547.09
2018-03-26T19:14:00.736Z,101545.08
2018-03-26T19:17:04.846Z,101546.88
2018-03-26T19:20:08.927Z,101546.70
2018-03-26T19:23:12.269Z,101545.00
2018-03-26T19:26:15.603Z,101546.79
2018-03-26T19:29:18.943Z,101552.65
2018-03-26T19:32:22.313Z,101542.13
2018-03-26T19:35:25.651Z,101548.86
2018-03-26T19:38:28.991Z,101546.00
2018-03-26T19:41:32.325Z,101550.05
2018-03-26T19:44:35.638Z,101553.52
2018-03-26T19:47:38.980Z,101546.88
2018-03-26T19:50:42.306Z,101552.77
2018-03-26T19:53:45.619Z,101548.80
2018-03-26T19:56:49.740Z,101556.20
2018-03-26T19:59:53.823Z,101556.02
2018-03-26T20:02:57.151Z,101556.13
2018-03-26T20:06:00.496Z,101565.64
2018-03-26T20:09:03.827Z,101565.30
2018-03-26T20:12:07.125Z,101559.48
2018-03-26T20:15:10.446Z,101562.44
2018-03-26T20:18:14.535Z,101563.12
2018-03-26T20:21:17.848Z,101562.33
2018-03-26T20:24:21.951Z,101565.63
2018-03-26T20:27:25.312Z,101562.50
2018-03-26T20:30:28.590Z,101565.55
2018-03-26T20:33:31.916Z,101561.17
2018-03-26T20:36:35.227Z,101558.16
2018-03-26T20:39:38.546Z,101556.20
2018-03-26T20:42:41.851Z,101561.17
2018-03-26T20:45:45.934Z,101562.00
2018-03-26T20:48:49.255Z,101567.23
2018-03-26T20:51:52.574Z,101558.73
2018-03-26T20:54:55.899Z,101552.67
2018-03-26T20:57:59.227Z,101552.83
2018-03-26T21:01:02.530Z,101553.52
2018-03-26T21:04:06.611Z,101562.27
2018-03-26T21:07:09.967Z,101553.08
2018-03-26T21:10:13.284Z,101548.20
2018-03-26T21:13:16.619Z,101550.31
2018-03-26T21:16:19.943Z,101552.22
2018-03-26T21:19:23.275Z,101552.23
2018-03-26T21:22:26.587Z,101547.25
2018-03-26T21:25:29.914Z,101549.59
2018-03-26T21:28:33.232Z,101550.91
2018-03-26T21:31:36.562Z,101546.13
2018-03-26T21:34:39.889Z,101557.73
2018-03-26T21:37:43.237Z,101552.77
2018-03-26T21:40:46.575Z,101557.98
2018-03-26T21:43:49.921Z,101563.46
2018-03-26T21:46:54.021Z,101561.44
2018-03-26T21:49:57.384Z,101561.53
2018-03-26T21:53:00.699Z,101561.43
2018-03-26T21:56:04.037Z,101561.59
2018-03-26T21:59:07.355Z,101555.23
2018-03-26T22:02:10.688Z,101551.19
2018-03-26T22:05:14.001Z,101554.48
2018-03-26T22:08:17.332Z,101553.52
2018-03-26T22:11:20.654Z,101556.81
2018-03-26T22:14:23.970Z,101556.72
2018-03-26T22:17:27.302Z,101552.94
2018-03-26T22:20:30.619Z,101552.95
2018-03-26T22:23:33.952Z,101552.35
2018-03-26T22:26:37.279Z,101561.86
2018-03-26T22:29:40.613Z,101553.20
2018-03-26T22:32:43.962Z,101555.14
2018-03-26T22:35:47.295Z,101559.83
2018-03-26T22:38:50.632Z,101556.20
2018-03-26T22:41:53.989Z,101561.91
2018-03-26T22:44:57.306Z,101567.38
2018-03-26T22:48:00.661Z,101569.38
2018-03-26T22:51:04.741Z,101564.17
2018-03-26T22:54:08.085Z,101564.07
2018-03-26T22:57:11.439Z,101565.25
2018-03-26T23:00:14.770Z,101561.91
2018-03-26T23:03:18.864Z,101570.20
2018-03-26T23:06:22.196Z,101571.81
2018-03-26T23:09:25.558Z,101565.58
2018-03-26T23:12:28.875Z,101566.36
2018-03-26T23:15:32.211Z,101564.50
2018-03-26T23:18:35.551Z,101567.94
2018-03-26T23:21:38.890Z,101564.73
2018-03-26T23:24:42.198Z,101563.81
2018-03-26T23:27:45.531Z,101561.38
2018-03-26T23:30:48.874Z,101561.05
2018-03-26T23:33:52.227Z,101551.87
2018-03-26T23:36:55.566Z,101553.31
2018-03-26T23:39:58.999Z,101550.00
2018-03-26T23:43:02.316Z,101547.41
2018-03-26T23:46:05.652Z,101546.56
2018-03-26T23:49:09.791Z,101553.55
2018-03-26T23:52:13.129Z,101554.40
2018-03-26T23:55:16.439Z,101554.40
2018-03-26T23:58:19.781Z,101558.43
